createdAt,value
2022-07-26T00:02:31.682Z,100.00
2022-07-26T00:05:08.978Z,100.00
2022-07-26T00:07:39.734Z,100.00
2022-07-26T00:10:08.395Z,100.00
2022-07-26T00:12:42.791Z,100.00
2022-07-26T00:15:21.115Z,100.00
2022-07-26T00:17:51.866Z,100.00
2022-07-26T00:20:20.184Z,100.00
2022-07-26T00:22:50.475Z,100.00
2022-07-26T00:25:21.278Z,100.00
2022-07-26T00:27:53.782Z,100.00
2022-07-26T00:30:23.968Z,100.00
2022-07-26T00:32:52.975Z,100.00
2022-07-26T00:35:24.121Z,100.00
2022-07-26T00:37:58.086Z,100.00
2022-07-26T00:40:45.260Z,100.00
2022-07-26T00:43:14.876Z,100.00
2022-07-26T00:45:44.916Z,100.00
2022-07-26T00:48:15.862Z,100.00
2022-07-26T00:50:49.804Z,100.00
2022-07-26T00:53:21.374Z,100.00
2022-07-26T00:55:53.936Z,100.00
2022-07-26T00:58:25.192Z,100.00
2022-07-26T01:00:54.489Z,100.00
2022-07-26T01:03:36.208Z,100.00
2022-07-26T01:06:10.433Z,100.00
2022-07-26T01:08:45.375Z,100.00
2022-07-26T01:11:15.015Z,100.00
2022-07-26T01:14:00.676Z,100.00
2022-07-26T01:16:29.047Z,100.00
2022-07-26T01:18:58.985Z,100.00
2022-07-26T01:21:34.573Z,100.00
2022-07-26T01:24:03.525Z,100.00
2022-07-26T01:26:35.716Z,100.00
2022-07-26T01:29:03.929Z,100.00
2022-07-26T01:31:34.613Z,100.00
2022-07-26T01:34:02.826Z,100.00
2022-07-26T01:36:34.624Z,100.00
2022-07-26T01:39:02.880Z,100.00
2022-07-26T01:41:41.546Z,100.00
2022-07-26T01:44:10.046Z,100.00
2022-07-26T01:46:40.141Z,100.00
2022-07-26T01:49:09.415Z,100.00
2022-07-26T01:51:41.542Z,100.00
2022-07-26T01:54:12.922Z,100.00
2022-07-26T01:56:41.471Z,100.00
2022-07-26T01:59:12.535Z,100.00
2022-07-26T02:01:40.790Z,100.00
2022-07-26T02:04:31.292Z,100.00
2022-07-26T02:07:05.632Z,100.00
2022-07-26T02:09:43.839Z,100.00
2022-07-26T02:12:12.287Z,100.00
2022-07-26T02:14:40.523Z,100.00
2022-07-26T02:17:08.685Z,100.00
2022-07-26T02:19:39.162Z,100.00
2022-07-26T02:22:10.615Z,100.00
2022-07-26T02:24:40.752Z,100.00
2022-07-26T02:30:50.582Z,100.00
2022-07-26T02:33:19.864Z,100.00
2022-07-26T02:35:50.575Z,100.00
2022-07-26T02:38:25.069Z,100.00
2022-07-26T02:41:03.048Z,100.00
2022-07-26T02:43:32.542Z,100.00
2022-07-26T02:46:02.258Z,100.00
2022-07-26T02:48:31.310Z,100.00
2022-07-26T02:50:59.880Z,100.00
2022-07-26T02:53:31.782Z,100.00
2022-07-26T02:56:04.218Z,100.00
2022-07-26T02:58:34.202Z,100.00
2022-07-26T03:01:02.504Z,100.00
2022-07-26T03:03:32.661Z,100.00
2022-07-26T03:06:05.276Z,100.00
2022-07-26T03:08:34.949Z,100.00
2022-07-26T03:11:03.299Z,100.00
2022-07-26T03:13:34.157Z,100.00
2022-07-26T03:16:05.282Z,100.00
2022-07-26T03:18:33.529Z,100.00
2022-07-26T03:21:01.860Z,100.00
2022-07-26T03:23:33.662Z,100.00
2022-07-26T03:26:06.151Z,100.00
2022-07-26T03:28:35.105Z,100.00
2022-07-26T03:31:08.434Z,100.00
2022-07-26T03:33:36.884Z,100.00
2022-07-26T03:36:11.660Z,100.00
2022-07-26T03:38:47.544Z,100.00
2022-07-26T03:41:22.100Z,100.00
2022-07-26T03:43:53.403Z,100.00
2022-07-26T03:46:21.804Z,100.00
2022-07-26T03:48:50.178Z,100.00
2022-07-26T03:51:18.473Z,100.00
2022-07-26T03:53:46.762Z,100.00
2022-07-26T03:56:33.213Z,100.00
2022-07-26T03:59:02.780Z,100.00
2022-07-26T04:01:31.744Z,100.00
2022-07-26T04:04:04.056Z,100.00
2022-07-26T04:06:35.438Z,100.00
2022-07-26T04:09:12.920Z,100.00
2022-07-26T04:11:42.877Z,100.00
2022-07-26T04:14:15.271Z,100.00
2022-07-26T04:16:47.613Z,100.00
2022-07-26T04:19:16.365Z,100.00
2022-07-26T04:21:46.933Z,100.00
2022-07-26T04:24:15.184Z,100.00
2022-07-26T04:26:52.981Z,100.00
2022-07-26T04:29:21.397Z,100.00
2022-07-26T04:31:49.827Z,100.00
2022-07-26T04:34:21.133Z,100.00
2022-07-26T04:36:49.611Z,100.00
2022-07-26T04:39:18.920Z,100.00
2022-07-26T04:41:51.544Z,100.00
2022-07-26T04:44:25.602Z,100.00
2022-07-26T04:46:54.899Z,100.00
2022-07-26T04:49:26.112Z,100.00
2022-07-26T04:51:59.341Z,100.00
2022-07-26T04:54:28.033Z,100.00
2022-07-26T04:56:57.858Z,100.00
2022-07-26T04:59:26.204Z,100.00
2022-07-26T05:01:54.821Z,100.00
2022-07-26T05:04:24.987Z,100.00
2022-07-26T05:06:53.505Z,100.00
2022-07-26T05:09:26.716Z,100.00
2022-07-26T05:11:55.107Z,100.00
2022-07-26T05:14:30.957Z,100.00
2022-07-26T05:17:09.002Z,100.00
2022-07-26T05:19:49.245Z,100.00
2022-07-26T05:22:21.143Z,100.00
2022-07-26T05:24:58.140Z,100.00
2022-07-26T05:27:33.829Z,100.00
2022-07-26T05:30:07.521Z,100.00
2022-07-26T05:32:44.452Z,100.00
2022-07-26T05:35:14.651Z,100.00
2022-07-26T05:37:49.464Z,100.00
2022-07-26T05:40:19.673Z,100.00
2022-07-26T05:42:48.029Z,100.00
2022-07-26T05:45:23.257Z,100.00
2022-07-26T05:47:53.095Z,100.00
2022-07-26T05:50:24.502Z,100.00
2022-07-26T05:52:52.869Z,100.00
2022-07-26T05:55:29.711Z,100.00
2022-07-26T05:58:01.256Z,100.00
2022-07-26T06:00:34.057Z,100.00
2022-07-26T06:03:22.175Z,100.00
2022-07-26T06:05:53.232Z,100.00
2022-07-26T06:08:27.486Z,100.00
2022-07-26T06:10:56.163Z,100.00
2022-07-26T06:13:26.848Z,100.00
2022-07-26T06:16:05.028Z,100.00
2022-07-26T06:18:42.928Z,100.00
2022-07-26T06:21:11.557Z,100.00
2022-07-26T06:23:43.760Z,100.00
2022-07-26T06:26:18.078Z,100.00
2022-07-26T06:28:47.129Z,100.00
2022-07-26T06:31:17.008Z,100.00
2022-07-26T06:33:47.143Z,100.00
2022-07-26T06:36:15.509Z,100.00
2022-07-26T06:38:43.894Z,100.00
2022-07-26T06:41:13.473Z,100.00
2022-07-26T06:43:44.526Z,100.00
2022-07-26T06:46:17.944Z,100.00
2022-07-26T06:48:47.596Z,100.00
2022-07-26T06:51:22.452Z,100.00
2022-07-26T06:53:55.993Z,100.00
2022-07-26T06:56:29.298Z,88.68
2022-07-26T06:58:57.664Z,93.31
2022-07-26T07:01:59.303Z,95.25
2022-07-26T07:04:16.248Z,98.23
2022-07-26T07:06:49.591Z,91.79
2022-07-26T07:09:21.133Z,96.32
2022-07-26T07:11:51.818Z,93.90
2022-07-26T07:14:27.536Z,90.88
2022-07-26T07:16:57.904Z,92.90
2022-07-26T07:19:29.119Z,89.96
2022-07-26T07:25:06.907Z,86.90
2022-07-26T07:27:36.874Z,84.31
2022-07-26T07:30:15.356Z,84.02
2022-07-26T07:32:58.399Z,80.33
2022-07-26T07:35:37.148Z,82.35
2022-07-26T07:38:10.086Z,86.50
2022-07-26T07:40:45.945Z,89.93
2022-07-26T07:43:25.992Z,90.13
2022-07-26T07:46:06.289Z,90.76
2022-07-26T07:48:47.548Z,96.19
2022-07-26T07:51:26.558Z,88.42
2022-07-26T07:54:06.448Z,93.54
2022-07-26T07:56:44.154Z,94.83
2022-07-26T07:59:22.841Z,89.22
2022-07-26T08:02:02.795Z,94.73
2022-07-26T08:04:33.454Z,84.31
2022-07-26T08:07:13.135Z,81.84
2022-07-26T08:09:47.939Z,74.22
2022-07-26T08:12:22.369Z,74.74
2022-07-26T08:15:08.551Z,75.53
2022-07-26T08:17:51.305Z,74.16
2022-07-26T08:20:41.050Z,70.05
2022-07-26T08:23:21.993Z,68.62
2022-07-26T08:25:57.336Z,66.87
2022-07-26T08:31:26.121Z,64.67
2022-07-26T08:34:04.149Z,63.47
2022-07-26T08:37:00.782Z,57.41
2022-07-26T08:39:44.355Z,55.31
2022-07-26T08:42:30.620Z,57.06
2022-07-26T08:45:06.991Z,49.92
2022-07-26T08:48:16.060Z,49.17
2022-07-26T08:50:55.763Z,53.22
2022-07-26T08:53:36.997Z,56.15
2022-07-26T08:56:17.327Z,54.49
2022-07-26T08:58:53.112Z,51.51
2022-07-26T09:01:34.924Z,54.18
2022-07-26T09:04:38.634Z,53.27
2022-07-26T09:07:22.400Z,49.49
2022-07-26T09:10:11.652Z,51.74
2022-07-26T09:12:59.149Z,51.60
2022-07-26T09:15:38.617Z,52.75
2022-07-26T09:18:36.416Z,48.93
2022-07-26T09:21:07.539Z,46.53
2022-07-26T09:23:51.604Z,49.50
2022-07-26T09:26:31.971Z,48.59
2022-07-26T09:29:07.463Z,47.78
2022-07-26T09:31:40.051Z,47.94
2022-07-26T09:34:20.971Z,52.06
2022-07-26T09:37:00.285Z,50.03
2022-07-26T09:39:40.505Z,48.26
2022-07-26T09:42:30.094Z,46.09
2022-07-26T09:45:01.594Z,46.50
2022-07-26T09:47:49.709Z,46.71
2022-07-26T09:50:30.902Z,47.94
2022-07-26T09:53:16.892Z,48.57
2022-07-26T09:56:01.447Z,45.14
2022-07-26T09:58:41.084Z,45.42
2022-07-26T10:01:12.687Z,44.21
2022-07-26T10:03:48.605Z,42.93
2022-07-26T10:06:30.291Z,43.73
2022-07-26T10:09:08.800Z,43.28
2022-07-26T10:11:55.301Z,42.41
2022-07-26T10:14:41.534Z,40.74
2022-07-26T10:17:41.031Z,42.55
2022-07-26T10:20:37.090Z,39.56
2022-07-26T10:23:38.291Z,40.60
2022-07-26T10:26:10.022Z,42.81
2022-07-26T10:28:42.576Z,40.78
2022-07-26T10:31:37.253Z,40.18
2022-07-26T10:34:09.326Z,40.83
2022-07-26T10:36:42.415Z,41.26
2022-07-26T10:39:19.999Z,40.72
2022-07-26T10:42:03.377Z,40.61
2022-07-26T10:44:35.444Z,39.60
2022-07-26T10:47:25.253Z,38.46
2022-07-26T10:50:01.127Z,39.20
2022-07-26T10:52:34.395Z,41.32
2022-07-26T10:55:14.054Z,40.83
2022-07-26T10:57:56.232Z,41.10
2022-07-26T11:00:29.108Z,40.85
2022-07-26T11:03:01.744Z,40.38
2022-07-26T11:05:35.338Z,41.52
2022-07-26T11:08:11.952Z,41.09
2022-07-26T11:10:44.562Z,41.40
2022-07-26T11:13:18.692Z,41.84
2022-07-26T11:15:54.505Z,41.38
2022-07-26T11:18:39.305Z,41.81
2022-07-26T11:21:23.070Z,41.63
2022-07-26T11:26:49.558Z,41.97
2022-07-26T11:29:37.283Z,38.79
2022-07-26T11:32:14.831Z,40.18
2022-07-26T11:35:02.611Z,40.41
2022-07-26T11:37:37.647Z,40.17
2022-07-26T11:40:11.603Z,42.08
2022-07-26T11:42:44.739Z,42.18
2022-07-26T11:45:18.064Z,41.90
2022-07-26T11:47:52.440Z,43.46
2022-07-26T11:50:24.749Z,42.32
2022-07-26T11:52:54.482Z,42.53
2022-07-26T11:55:28.833Z,42.91
2022-07-26T11:57:59.056Z,43.05
2022-07-26T12:00:36.958Z,42.44
2022-07-26T12:03:11.955Z,43.18
2022-07-26T12:05:47.571Z,43.51
2022-07-26T12:08:16.231Z,44.11
2022-07-26T12:10:47.889Z,43.42
2022-07-26T12:13:20.210Z,43.88
2022-07-26T12:15:53.100Z,41.88
2022-07-26T12:18:26.780Z,40.88
2022-07-26T12:21:11.823Z,40.31
2022-07-26T12:23:46.544Z,46.86
2022-07-26T12:26:29.929Z,39.01
2022-07-26T12:29:00.099Z,39.28
2022-07-26T12:31:30.899Z,41.88
2022-07-26T12:34:02.829Z,44.03
2022-07-26T12:36:36.779Z,44.37
2022-07-26T12:39:08.106Z,45.23
2022-07-26T12:41:37.810Z,43.70
2022-07-26T12:44:07.194Z,42.71
2022-07-26T12:46:45.399Z,36.67
2022-07-26T12:49:15.839Z,32.13
2022-07-26T12:51:46.033Z,28.58
2022-07-26T12:54:15.962Z,24.97
2022-07-26T12:56:56.341Z,23.08
2022-07-26T12:59:24.846Z,21.98
2022-07-26T13:01:53.344Z,24.16
2022-07-26T13:04:24.486Z,26.00
2022-07-26T13:06:54.721Z,25.74
2022-07-26T13:09:23.413Z,24.11
2022-07-26T13:11:52.097Z,21.41
2022-07-26T13:14:20.621Z,22.06
2022-07-26T13:16:50.331Z,24.63
2022-07-26T13:19:22.470Z,28.03
2022-07-26T13:21:53.091Z,31.39
2022-07-26T13:24:31.022Z,32.44
2022-07-26T13:27:06.742Z,33.31
2022-07-26T13:29:45.506Z,33.05
2022-07-26T13:32:16.918Z,34.43
2022-07-26T13:34:53.116Z,32.69
2022-07-26T13:37:24.152Z,25.90
2022-07-26T13:39:57.308Z,24.08
2022-07-26T13:42:32.678Z,28.64
2022-07-26T13:45:09.664Z,28.09
2022-07-26T13:50:42.517Z,24.14
2022-07-26T13:53:27.857Z,23.35
2022-07-26T13:56:13.459Z,26.54
2022-07-26T13:59:02.183Z,29.56
2022-07-26T14:01:51.397Z,31.62
2022-07-26T14:04:37.446Z,28.92
2022-07-26T14:10:14.446Z,19.85
2022-07-26T14:15:40.713Z,21.36
2022-07-26T14:21:19.152Z,21.60
2022-07-26T14:23:47.760Z,21.18
2022-07-26T14:26:16.033Z,22.13
2022-07-26T14:28:46.016Z,24.54
2022-07-26T14:31:14.394Z,25.84
2022-07-26T14:33:42.753Z,28.19
2022-07-26T14:36:13.432Z,24.55
2022-07-26T14:38:42.283Z,19.20
2022-07-26T14:41:10.756Z,17.74
2022-07-26T14:43:39.570Z,17.42
2022-07-26T14:46:25.847Z,18.10
2022-07-26T14:49:12.683Z,17.78
2022-07-26T14:51:51.660Z,19.00
2022-07-26T14:54:34.164Z,22.25
2022-07-26T15:05:57.709Z,20.70
2022-07-26T15:17:44.880Z,20.52
2022-07-26T15:20:28.920Z,19.13
2022-07-26T15:26:06.963Z,18.13
2022-07-26T15:34:58.679Z,18.54
2022-07-26T15:40:49.862Z,20.28
2022-07-26T15:43:44.194Z,24.12
2022-07-26T15:46:20.013Z,25.23
2022-07-26T15:48:50.355Z,25.70
2022-07-26T15:51:18.908Z,26.88
2022-07-26T15:53:48.760Z,26.89
2022-07-26T15:56:17.409Z,27.09
2022-07-26T15:58:45.942Z,27.69
2022-07-26T16:01:17.413Z,28.59
2022-07-26T16:03:48.218Z,29.17
2022-07-26T16:06:27.959Z,28.94
2022-07-26T16:09:16.513Z,29.46
2022-07-26T16:11:46.903Z,28.97
2022-07-26T16:14:15.888Z,29.50
2022-07-26T16:16:46.320Z,29.32
2022-07-26T16:19:17.043Z,29.97
2022-07-26T16:21:45.476Z,30.11
2022-07-26T16:24:15.331Z,29.82
2022-07-26T16:26:44.919Z,30.43
2022-07-26T16:29:15.891Z,30.38
2022-07-26T16:31:44.436Z,30.14
2022-07-26T16:34:13.105Z,30.84
2022-07-26T16:36:41.617Z,30.45
2022-07-26T16:39:10.238Z,30.59
2022-07-26T16:41:39.997Z,31.30
2022-07-26T16:44:08.431Z,31.20
2022-07-26T16:46:38.890Z,31.68
2022-07-26T16:49:11.650Z,35.62
2022-07-26T16:51:40.644Z,34.74
2022-07-26T16:54:09.013Z,39.24
2022-07-26T16:56:44.086Z,36.55
2022-07-26T16:59:12.903Z,36.48
2022-07-26T17:01:41.763Z,39.50
2022-07-26T17:04:10.420Z,38.04
2022-07-26T17:06:38.995Z,39.31
2022-07-26T17:09:15.101Z,38.83
2022-07-26T17:11:46.939Z,39.67
2022-07-26T17:14:16.495Z,40.39
2022-07-26T17:16:45.082Z,39.56
2022-07-26T17:19:16.672Z,40.25
2022-07-26T17:21:45.377Z,40.53
2022-07-26T17:24:13.885Z,40.32
2022-07-26T17:26:43.964Z,40.20
2022-07-26T17:29:14.049Z,40.94
2022-07-26T17:31:44.953Z,41.41
2022-07-26T17:34:13.539Z,40.24
2022-07-26T17:36:43.062Z,41.39
2022-07-26T17:39:17.899Z,41.75
2022-07-26T17:41:49.402Z,41.45
2022-07-26T17:44:22.688Z,40.56
2022-07-26T17:46:51.654Z,40.53
2022-07-26T17:49:28.316Z,39.83
2022-07-26T17:52:01.791Z,40.11
2022-07-26T17:54:33.492Z,40.16
2022-07-26T17:57:02.172Z,40.11
2022-07-26T17:59:32.076Z,39.91
2022-07-26T18:02:00.566Z,39.76
2022-07-26T18:04:29.145Z,39.90
2022-07-26T18:06:57.563Z,40.71
2022-07-26T18:09:26.023Z,40.11
2022-07-26T18:11:57.674Z,40.59
2022-07-26T18:14:26.224Z,40.27
2022-07-26T18:16:57.112Z,39.06
2022-07-26T18:19:27.532Z,39.19
2022-07-26T18:22:02.886Z,41.07
2022-07-26T18:24:37.421Z,39.66
2022-07-26T18:27:06.339Z,39.80
2022-07-26T18:29:34.914Z,40.22
2022-07-26T18:32:04.802Z,40.26
2022-07-26T18:34:35.643Z,41.13
2022-07-26T18:37:05.352Z,41.10
2022-07-26T18:39:34.000Z,42.17
2022-07-26T18:42:02.623Z,41.75
2022-07-26T18:44:31.075Z,42.75
2022-07-26T18:46:59.506Z,44.10
2022-07-26T18:49:30.791Z,43.70
2022-07-26T18:52:05.840Z,44.64
2022-07-26T18:54:37.103Z,44.61
2022-07-26T18:57:05.899Z,44.51
2022-07-26T18:59:34.340Z,43.83
2022-07-26T19:02:02.775Z,42.73
2022-07-26T19:04:32.813Z,45.24
2022-07-26T19:07:03.163Z,46.33
2022-07-26T19:09:31.672Z,45.57
2022-07-26T19:12:08.306Z,46.35
2022-07-26T19:14:36.819Z,47.23
2022-07-26T19:17:06.144Z,47.94
2022-07-26T19:19:39.002Z,49.92
2022-07-26T19:22:07.497Z,50.52
2022-07-26T19:24:36.246Z,50.05
2022-07-26T19:27:07.976Z,50.15
2022-07-26T19:29:36.505Z,54.79
2022-07-26T19:32:05.388Z,55.24
2022-07-26T19:34:37.040Z,54.55
2022-07-26T19:37:08.489Z,55.77
2022-07-26T19:39:36.983Z,55.69
2022-07-26T19:42:05.499Z,57.87
2022-07-26T19:44:34.163Z,56.13
2022-07-26T19:47:02.675Z,60.48
2022-07-26T19:49:37.079Z,66.26
2022-07-26T19:52:11.904Z,59.33
2022-07-26T19:54:43.214Z,65.06
2022-07-26T19:57:13.478Z,76.48
2022-07-26T19:59:42.018Z,72.27
2022-07-26T20:02:14.088Z,66.10
2022-07-26T20:04:46.088Z,63.99
2022-07-26T20:07:19.852Z,67.27
2022-07-26T20:09:51.362Z,64.93
2022-07-26T20:12:22.840Z,66.87
2022-07-26T20:14:54.055Z,67.61
2022-07-26T20:17:23.665Z,66.75
2022-07-26T20:19:52.233Z,66.39
2022-07-26T20:22:25.128Z,70.40
2022-07-26T20:24:56.451Z,72.21
2022-07-26T20:27:25.076Z,71.40
2022-07-26T20:29:58.815Z,73.59
2022-07-26T20:32:34.144Z,76.95
2022-07-26T20:35:02.575Z,91.65
2022-07-26T20:37:32.517Z,79.93
2022-07-26T20:40:00.970Z,83.76
2022-07-26T20:42:29.438Z,79.97
2022-07-26T20:45:01.244Z,98.38
2022-07-26T20:47:32.511Z,100.00
2022-07-26T20:50:03.403Z,100.00
2022-07-26T20:52:36.343Z,100.00
2022-07-26T20:55:05.444Z,100.00
2022-07-26T20:57:33.778Z,100.00
2022-07-26T21:00:02.053Z,100.00
2022-07-26T21:02:30.455Z,100.00
2022-07-26T21:04:58.998Z,100.00
2022-07-26T21:07:53.948Z,100.00
2022-07-26T21:10:17.923Z,100.00
2022-07-26T21:12:46.928Z,100.00
2022-07-26T21:15:15.234Z,100.00
2022-07-26T21:17:43.643Z,100.00
2022-07-26T21:20:12.351Z,100.00
2022-07-26T21:22:40.742Z,100.00
2022-07-26T21:25:09.944Z,100.00
2022-07-26T21:27:39.784Z,100.00
2022-07-26T21:30:09.594Z,100.00
2022-07-26T21:32:38.060Z,100.00
2022-07-26T21:35:07.351Z,100.00
2022-07-26T21:37:38.261Z,100.00
2022-07-26T21:40:07.991Z,100.00
2022-07-26T21:42:36.611Z,100.00
2022-07-26T21:45:07.803Z,100.00
2022-07-26T21:47:36.451Z,100.00
2022-07-26T21:50:05.172Z,100.00
2022-07-26T21:52:33.722Z,100.00
2022-07-26T21:55:02.153Z,100.00
2022-07-26T21:57:30.623Z,100.00
2022-07-26T21:59:59.023Z,100.00
2022-07-26T22:02:28.874Z,100.00
2022-07-26T22:04:57.926Z,100.00
2022-07-26T22:07:26.265Z,100.00
2022-07-26T22:09:54.652Z,100.00
2022-07-26T22:12:23.031Z,100.00
2022-07-26T22:14:51.473Z,100.00
2022-07-26T22:17:19.835Z,100.00
2022-07-26T22:19:49.642Z,100.00
2022-07-26T22:22:18.034Z,100.00
2022-07-26T22:24:46.474Z,100.00
2022-07-26T22:27:15.310Z,100.00
2022-07-26T22:29:44.114Z,100.00
2022-07-26T22:32:12.650Z,100.00
2022-07-26T22:34:41.094Z,100.00
2022-07-26T22:37:10.978Z,100.00
2022-07-26T22:39:40.302Z,100.00
2022-07-26T22:42:16.317Z,100.00
2022-07-26T22:44:45.076Z,100.00
2022-07-26T22:47:13.362Z,100.00
2022-07-26T22:49:41.642Z,100.00
2022-07-26T22:52:11.338Z,100.00
2022-07-26T22:54:40.166Z,100.00
2022-07-26T22:57:08.473Z,100.00
2022-07-26T22:59:37.388Z,100.00
2022-07-26T23:02:05.773Z,100.00
2022-07-26T23:04:34.045Z,100.00
2022-07-26T23:07:02.519Z,100.00
2022-07-26T23:09:34.256Z,100.00
2022-07-26T23:12:02.536Z,100.00
2022-07-26T23:14:30.798Z,100.00
2022-07-26T23:16:59.069Z,100.00
2022-07-26T23:19:27.595Z,100.00
2022-07-26T23:21:55.904Z,100.00
2022-07-26T23:24:24.151Z,100.00
2022-07-26T23:26:53.854Z,100.00
2022-07-26T23:29:22.101Z,100.00
2022-07-26T23:31:50.379Z,100.00
2022-07-26T23:34:18.725Z,100.00
2022-07-26T23:36:46.958Z,100.00
2022-07-26T23:39:15.279Z,100.00
2022-07-26T23:41:43.743Z,100.00
2022-07-26T23:44:13.468Z,100.00
2022-07-26T23:46:41.854Z,100.00
2022-07-26T23:49:10.578Z,100.00
2022-07-26T23:51:39.340Z,100.00
2022-07-26T23:54:07.904Z,100.00
2022-07-26T23:56:37.586Z,100.00
2022-07-26T23:59:06.135Z,100.00
